sensor_id;sensor_type;location;lat;lon;timestamp;pressure;altitude;pressure_sealevel;temperature;humidity
16355;BME280;8287;51.644;8.494;2023-05-03T00:00:12;101633.38;;;6.94;77.73
16355;BME280;8287;51.644;8.494;2023-05-03T00:02:40;101635.66;;;6.85;78.52
16355;BME280;8287;51.644;8.494;2023-05-03T00:05:09;101637.78;;;6.88;79.22
16355;BME280;8287;51.644;8.494;2023-05-03T00:07:37;101628.31;;;6.87;79.19
16355;BME280;8287;51.644;8.494;2023-05-03T00:10:06;101622.00;;;6.88;79.25
16355;BME280;8287;51.644;8.494;2023-05-03T00:12:37;101616.97;;;6.87;79.12
16355;BME280;8287;51.644;8.494;2023-05-03T00:15:05;101616.69;;;6.83;79.20
16355;BME280;8287;51.644;8.494;2023-05-03T00:17:32;101621.66;;;6.80;78.81
16355;BME280;8287;51.644;8.494;2023-05-03T00:19:58;101627.66;;;6.75;78.91
16355;BME280;8287;51.644;8.494;2023-05-03T00:22:25;101623.13;;;6.71;78.91
16355;BME280;8287;51.644;8.494;2023-05-03T00:24:52;101620.72;;;6.69;77.73
16355;BME280;8287;51.644;8.494;2023-05-03T00:27:19;101629.69;;;6.68;77.19
16355;BME280;8287;51.644;8.494;2023-05-03T00:29:49;101618.97;;;6.53;78.32
16355;BME280;8287;51.644;8.494;2023-05-03T00:32:16;101605.50;;;6.50;78.81
16355;BME280;8287;51.644;8.494;2023-05-03T00:34:42;101609.19;;;6.49;79.83
16355;BME280;8287;51.644;8.494;2023-05-03T00:37:09;101620.78;;;6.32;79.82
16355;BME280;8287;51.644;8.494;2023-05-03T00:39:35;101620.78;;;6.32;80.82
16355;BME280;8287;51.644;8.494;2023-05-03T00:42:02;101621.09;;;6.35;80.45
16355;BME280;8287;51.644;8.494;2023-05-03T00:44:29;101613.63;;;6.27;80.20
16355;BME280;8287;51.644;8.494;2023-05-03T00:46:57;101616.22;;;6.22;80.60
16355;BME280;8287;51.644;8.494;2023-05-03T00:49:24;101620.63;;;6.17;80.50
16355;BME280;8287;51.644;8.494;2023-05-03T00:51:52;101624.34;;;6.21;80.82
16355;BME280;8287;51.644;8.494;2023-05-03T00:54:19;101621.50;;;6.06;81.71
16355;BME280;8287;51.644;8.494;2023-05-03T00:56:46;101626.53;;;6.07;82.19
16355;BME280;8287;51.644;8.494;2023-05-03T00:59:13;101621.09;;;6.14;82.39
16355;BME280;8287;51.644;8.494;2023-05-03T01:01:40;101607.06;;;6.08;82.25
16355;BME280;8287;51.644;8.494;2023-05-03T01:04:08;101616.88;;;6.13;82.09
16355;BME280;8287;51.644;8.494;2023-05-03T01:06:39;101616.84;;;5.91;82.51
16355;BME280;8287;51.644;8.494;2023-05-03T01:09:12;101617.50;;;6.03;82.43
16355;BME280;8287;51.644;8.494;2023-05-03T01:11:46;101604.53;;;5.97;82.02
16355;BME280;8287;51.644;8.494;2023-05-03T01:14:21;101619.69;;;5.90;81.86
16355;BME280;8287;51.644;8.494;2023-05-03T01:16:55;101616.34;;;5.78;82.12
16355;BME280;8287;51.644;8.494;2023-05-03T01:19:28;101615.72;;;5.71;82.59
16355;BME280;8287;51.644;8.494;2023-05-03T01:22:02;101626.13;;;5.66;82.86
16355;BME280;8287;51.644;8.494;2023-05-03T01:24:35;101619.38;;;5.70;82.01
16355;BME280;8287;51.644;8.494;2023-05-03T01:27:04;101625.03;;;5.62;82.30
16355;BME280;8287;51.644;8.494;2023-05-03T01:29:31;101634.44;;;5.58;83.06
16355;BME280;8287;51.644;8.494;2023-05-03T01:31:59;101623.28;;;5.51;82.66
16355;BME280;8287;51.644;8.494;2023-05-03T01:34:32;101627.28;;;5.53;82.89
16355;BME280;8287;51.644;8.494;2023-05-03T01:37:03;101628.88;;;5.54;83.15
16355;BME280;8287;51.644;8.494;2023-05-03T01:39:34;101627.91;;;5.44;83.09
16355;BME280;8287;51.644;8.494;2023-05-03T01:42:04;101631.41;;;5.49;83.66
16355;BME280;8287;51.644;8.494;2023-05-03T01:44:31;101627.97;;;5.49;82.63
16355;BME280;8287;51.644;8.494;2023-05-03T01:46:58;101634.34;;;5.53;81.90
16355;BME280;8287;51.644;8.494;2023-05-03T01:49:27;101638.47;;;5.49;82.10
16355;BME280;8287;51.644;8.494;2023-05-03T01:51:53;101645.81;;;5.47;81.60
16355;BME280;8287;51.644;8.494;2023-05-03T01:54:20;101642.00;;;5.38;81.80
16355;BME280;8287;51.644;8.494;2023-05-03T01:56:46;101645.16;;;5.40;82.83
16355;BME280;8287;51.644;8.494;2023-05-03T01:59:14;101645.66;;;5.37;83.14
16355;BME280;8287;51.644;8.494;2023-05-03T02:01:41;101647.78;;;5.40;83.52
16355;BME280;8287;51.644;8.494;2023-05-03T02:04:07;101639.03;;;5.34;83.68
16355;BME280;8287;51.644;8.494;2023-05-03T02:06:35;101644.84;;;5.36;83.84
16355;BME280;8287;51.644;8.494;2023-05-03T02:09:01;101652.44;;;5.33;84.04
16355;BME280;8287;51.644;8.494;2023-05-03T02:11:28;101650.81;;;5.32;84.06
16355;BME280;8287;51.644;8.494;2023-05-03T02:13:54;101645.00;;;5.30;84.23
16355;BME280;8287;51.644;8.494;2023-05-03T02:16:22;101649.88;;;5.21;83.54
16355;BME280;8287;51.644;8.494;2023-05-03T02:18:49;101663.44;;;5.18;83.11
16355;BME280;8287;51.644;8.494;2023-05-03T02:21:16;101654.50;;;5.03;83.27
16355;BME280;8287;51.644;8.494;2023-05-03T02:23:42;101654.31;;;4.93;84.01
16355;BME280;8287;51.644;8.494;2023-05-03T02:26:09;101661.53;;;4.86;84.89
16355;BME280;8287;51.644;8.494;2023-05-03T02:28:35;101657.88;;;4.87;84.47
16355;BME280;8287;51.644;8.494;2023-05-03T02:31:02;101662.22;;;4.93;85.03
16355;BME280;8287;51.644;8.494;2023-05-03T02:33:31;101655.44;;;4.97;84.64
16355;BME280;8287;51.644;8.494;2023-05-03T02:35:58;101655.53;;;5.02;83.93
16355;BME280;8287;51.644;8.494;2023-05-03T02:38:24;101656.09;;;5.04;83.73
16355;BME280;8287;51.644;8.494;2023-05-03T02:40:51;101657.34;;;5.01;83.58
16355;BME280;8287;51.644;8.494;2023-05-03T02:43:17;101660.34;;;4.93;83.26
16355;BME280;8287;51.644;8.494;2023-05-03T02:45:44;101673.78;;;4.80;83.30
16355;BME280;8287;51.644;8.494;2023-05-03T02:48:11;101676.78;;;4.72;83.74
16355;BME280;8287;51.644;8.494;2023-05-03T02:50:39;101674.72;;;4.63;84.15
16355;BME280;8287;51.644;8.494;2023-05-03T02:53:05;101682.59;;;4.63;85.22
16355;BME280;8287;51.644;8.494;2023-05-03T02:55:32;101674.72;;;4.63;85.20
16355;BME280;8287;51.644;8.494;2023-05-03T02:57:58;101670.44;;;4.57;85.28
16355;BME280;8287;51.644;8.494;2023-05-03T03:00:25;101673.41;;;4.49;85.42
16355;BME280;8287;51.644;8.494;2023-05-03T03:02:52;101676.34;;;4.52;85.69
16355;BME280;8287;51.644;8.494;2023-05-03T03:05:18;101677.00;;;4.59;85.75
16355;BME280;8287;51.644;8.494;2023-05-03T03:07:46;101673.97;;;4.51;85.31
16355;BME280;8287;51.644;8.494;2023-05-03T03:10:13;101673.28;;;4.44;85.49
16355;BME280;8287;51.644;8.494;2023-05-03T03:12:39;101684.81;;;4.43;85.99
16355;BME280;8287;51.644;8.494;2023-05-03T03:15:07;101680.94;;;4.45;85.84
16355;BME280;8287;51.644;8.494;2023-05-03T03:17:34;101677.28;;;4.46;85.43
16355;BME280;8287;51.644;8.494;2023-05-03T03:20:04;101681.28;;;4.49;85.97
16355;BME280;8287;51.644;8.494;2023-05-03T03:22:31;101671.78;;;4.48;85.80
16355;BME280;8287;51.644;8.494;2023-05-03T03:24:58;101671.69;;;4.43;85.98
16355;BME280;8287;51.644;8.494;2023-05-03T03:27:25;101667.81;;;4.45;85.97
16355;BME280;8287;51.644;8.494;2023-05-03T03:29:52;101672.59;;;4.48;85.79
16355;BME280;8287;51.644;8.494;2023-05-03T03:32:18;101672.38;;;4.50;85.90
16355;BME280;8287;51.644;8.494;2023-05-03T03:34:45;101680.34;;;4.55;85.46
16355;BME280;8287;51.644;8.494;2023-05-03T03:37:12;101673.16;;;4.50;86.06
16355;BME280;8287;51.644;8.494;2023-05-03T03:39:39;101670.66;;;4.55;85.70
16355;BME280;8287;51.644;8.494;2023-05-03T03:42:09;101668.50;;;4.41;85.43
16355;BME280;8287;51.644;8.494;2023-05-03T03:44:37;101667.38;;;4.25;85.09
16355;BME280;8287;51.644;8.494;2023-05-03T03:47:03;101672.06;;;4.23;85.67
16355;BME280;8287;51.644;8.494;2023-05-03T03:49:30;101670.13;;;4.30;86.22
16355;BME280;8287;51.644;8.494;2023-05-03T03:51:57;101673.56;;;4.19;86.40
16355;BME280;8287;51.644;8.494;2023-05-03T03:54:23;101670.13;;;4.19;86.86
16355;BME280;8287;51.644;8.494;2023-05-03T03:56:50;101675.16;;;4.32;87.26
16355;BME280;8287;51.644;8.494;2023-05-03T03:59:19;101676.25;;;4.36;86.91
16355;BME280;8287;51.644;8.494;2023-05-03T04:01:45;101662.13;;;4.37;87.04
16355;BME280;8287;51.644;8.494;2023-05-03T04:04:12;101662.91;;;4.37;86.58
16355;BME280;8287;51.644;8.494;2023-05-03T04:06:38;101674.19;;;4.38;86.27
16355;BME280;8287;51.644;8.494;2023-05-03T04:09:05;101671.59;;;4.26;85.81
16355;BME280;8287;51.644;8.494;2023-05-03T04:11:31;101667.97;;;4.16;85.10
16355;BME280;8287;51.644;8.494;2023-05-03T04:13:58;101674.47;;;4.25;84.92
16355;BME280;8287;51.644;8.494;2023-05-03T04:16:26;101666.34;;;4.26;85.52
16355;BME280;8287;51.644;8.494;2023-05-03T04:18:53;101662.69;;;4.27;86.27
16355;BME280;8287;51.644;8.494;2023-05-03T04:21:20;101676.06;;;4.26;86.74
16355;BME280;8287;51.644;8.494;2023-05-03T04:23:46;101676.72;;;4.33;87.08
16355;BME280;8287;51.644;8.494;2023-05-03T04:26:13;101674.13;;;4.21;87.26
16355;BME280;8287;51.644;8.494;2023-05-03T04:28:39;101667.50;;;4.30;87.61
16355;BME280;8287;51.644;8.494;2023-05-03T04:31:07;101671.00;;;4.36;87.48
16355;BME280;8287;51.644;8.494;2023-05-03T04:33:36;101678.31;;;4.34;87.01
16355;BME280;8287;51.644;8.494;2023-05-03T04:36:03;101672.75;;;4.30;86.53
16355;BME280;8287;51.644;8.494;2023-05-03T04:38:30;101682.75;;;4.22;86.78
16355;BME280;8287;51.644;8.494;2023-05-03T04:40:57;101681.31;;;4.26;86.91
16355;BME280;8287;51.644;8.494;2023-05-03T04:43:23;101684.25;;;4.18;86.71
16355;BME280;8287;51.644;8.494;2023-05-03T04:45:50;101683.69;;;4.16;87.22
16355;BME280;8287;51.644;8.494;2023-05-03T04:48:17;101680.63;;;4.19;87.48
16355;BME280;8287;51.644;8.494;2023-05-03T04:50:45;101674.34;;;4.20;87.30
16355;BME280;8287;51.644;8.494;2023-05-03T04:53:12;101674.91;;;4.22;87.92
16355;BME280;8287;51.644;8.494;2023-05-03T04:55:38;101672.75;;;4.30;88.50
16355;BME280;8287;51.644;8.494;2023-05-03T04:58:05;101664.06;;;4.18;89.02
16355;BME280;8287;51.644;8.494;2023-05-03T05:00:32;101670.69;;;4.21;90.13
16355;BME280;8287;51.644;8.494;2023-05-03T05:02:58;101671.50;;;4.33;90.49
16355;BME280;8287;51.644;8.494;2023-05-03T05:05:25;101657.75;;;4.42;90.79
16355;BME280;8287;51.644;8.494;2023-05-03T05:07:53;101661.03;;;4.61;90.58
16355;BME280;8287;51.644;8.494;2023-05-03T05:10:20;101651.88;;;4.75;90.84
16355;BME280;8287;51.644;8.494;2023-05-03T05:12:46;101649.91;;;4.82;90.53
16355;BME280;8287;51.644;8.494;2023-05-03T05:15:13;101648.59;;;4.96;90.32
16355;BME280;8287;51.644;8.494;2023-05-03T05:17:40;101654.13;;;5.11;89.83
16355;BME280;8287;51.644;8.494;2023-05-03T05:20:07;101639.81;;;5.18;89.45
16355;BME280;8287;51.644;8.494;2023-05-03T05:22:36;101652.44;;;5.33;88.98
16355;BME280;8287;51.644;8.494;2023-05-03T05:25:06;101650.28;;;5.46;88.78
16355;BME280;8287;51.644;8.494;2023-05-03T05:27:33;101654.66;;;5.57;87.91
16355;BME280;8287;51.644;8.494;2023-05-03T05:30:00;101648.78;;;5.67;87.53
16355;BME280;8287;51.644;8.494;2023-05-03T05:32:27;101661.06;;;5.78;86.65
16355;BME280;8287;51.644;8.494;2023-05-03T05:34:53;101661.78;;;5.90;86.26
16355;BME280;8287;51.644;8.494;2023-05-03T05:37:20;101671.13;;;5.97;86.08
16355;BME280;8287;51.644;8.494;2023-05-03T05:39:47;101674.13;;;6.06;86.13
16355;BME280;8287;51.644;8.494;2023-05-03T05:42:15;101675.78;;;6.12;86.17
16355;BME280;8287;51.644;8.494;2023-05-03T05:44:42;101675.31;;;6.15;86.10
16355;BME280;8287;51.644;8.494;2023-05-03T05:47:09;101681.13;;;6.17;87.29
16355;BME280;8287;51.644;8.494;2023-05-03T05:49:36;101685.09;;;6.19;87.17
16355;BME280;8287;51.644;8.494;2023-05-03T05:52:03;101691.00;;;6.26;86.70
16355;BME280;8287;51.644;8.494;2023-05-03T05:54:30;101698.28;;;6.40;85.97
16355;BME280;8287;51.644;8.494;2023-05-03T05:56:56;101698.50;;;6.55;85.59
16355;BME280;8287;51.644;8.494;2023-05-03T05:59:24;101703.84;;;6.60;85.73
16355;BME280;8287;51.644;8.494;2023-05-03T06:01:51;101706.06;;;6.68;86.29
16355;BME280;8287;51.644;8.494;2023-05-03T06:04:17;101695.56;;;6.73;87.20
16355;BME280;8287;51.644;8.494;2023-05-03T06:06:44;101703.09;;;6.86;86.71
16355;BME280;8287;51.644;8.494;2023-05-03T06:09:10;101692.13;;;6.94;86.84
16355;BME280;8287;51.644;8.494;2023-05-03T06:11:37;101700.16;;;7.04;85.44
16355;BME280;8287;51.644;8.494;2023-05-03T06:14:04;101702.78;;;7.04;85.64
16355;BME280;8287;51.644;8.494;2023-05-03T06:16:35;101697.72;;;7.24;85.14
16355;BME280;8287;51.644;8.494;2023-05-03T06:19:02;101701.53;;;7.33;83.84
16355;BME280;8287;51.644;8.494;2023-05-03T06:21:29;101695.78;;;7.41;83.77
16355;BME280;8287;51.644;8.494;2023-05-03T06:23:56;101700.50;;;7.66;83.64
16355;BME280;8287;51.644;8.494;2023-05-03T06:26:23;101706.69;;;7.81;83.45
16355;BME280;8287;51.644;8.494;2023-05-03T06:28:49;101708.94;;;7.99;82.29
16355;BME280;8287;51.644;8.494;2023-05-03T06:31:16;101714.41;;;8.19;81.82
16355;BME280;8287;51.644;8.494;2023-05-03T06:33:44;101713.16;;;8.32;80.88
16355;BME280;8287;51.644;8.494;2023-05-03T06:36:11;101716.13;;;8.45;81.00
16355;BME280;8287;51.644;8.494;2023-05-03T06:38:38;101721.72;;;8.54;81.56
16355;BME280;8287;51.644;8.494;2023-05-03T06:41:05;101721.50;;;8.65;81.23
16355;BME280;8287;51.644;8.494;2023-05-03T06:43:31;101726.06;;;8.75;80.69
16355;BME280;8287;51.644;8.494;2023-05-03T06:45:58;101722.94;;;8.83;80.72
16355;BME280;8287;51.644;8.494;2023-05-03T06:48:24;101723.75;;;8.88;80.67
16355;BME280;8287;51.644;8.494;2023-05-03T06:50:53;101718.50;;;9.03;79.85
16355;BME280;8287;51.644;8.494;2023-05-03T06:53:19;101727.28;;;9.19;78.71
16355;BME280;8287;51.644;8.494;2023-05-03T06:55:46;101715.94;;;9.28;79.09
16355;BME280;8287;51.644;8.494;2023-05-03T06:58:12;101717.53;;;9.39;79.71
16355;BME280;8287;51.644;8.494;2023-05-03T07:00:40;101712.28;;;9.44;77.82
16355;BME280;8287;51.644;8.494;2023-05-03T07:03:07;101716.53;;;9.60;77.13
16355;BME280;8287;51.644;8.494;2023-05-03T07:05:33;101707.00;;;9.64;75.95
16355;BME280;8287;51.644;8.494;2023-05-03T07:08:02;101717.31;;;9.80;76.46
16355;BME280;8287;51.644;8.494;2023-05-03T07:10:29;101707.25;;;9.97;75.56
16355;BME280;8287;51.644;8.494;2023-05-03T07:12:55;101709.91;;;10.12;75.18
16355;BME280;8287;51.644;8.494;2023-05-03T07:15:22;101709.09;;;10.37;72.85
16355;BME280;8287;51.644;8.494;2023-05-03T07:17:49;101706.31;;;10.67;72.71
16355;BME280;8287;51.644;8.494;2023-05-03T07:20:15;101712.06;;;10.89;69.93
16355;BME280;8287;51.644;8.494;2023-05-03T07:22:42;101701.09;;;11.10;68.19
16355;BME280;8287;51.644;8.494;2023-05-03T07:25:10;101702.34;;;11.28;67.49
16355;BME280;8287;51.644;8.494;2023-05-03T07:27:38;101710.47;;;11.80;67.84
16355;BME280;8287;51.644;8.494;2023-05-03T07:30:06;101697.66;;;12.15;66.51
16355;BME280;8287;51.644;8.494;2023-05-03T07:32:33;101697.91;;;12.42;66.20
16355;BME280;8287;51.644;8.494;2023-05-03T07:34:59;101699.03;;;12.60;64.38
16355;BME280;8287;51.644;8.494;2023-05-03T07:37:26;101696.31;;;12.65;62.96
16355;BME280;8287;51.644;8.494;2023-05-03T07:39:52;101686.28;;;13.04;63.89
16355;BME280;8287;51.644;8.494;2023-05-03T07:42:20;101683.97;;;13.34;61.09
16355;BME280;8287;51.644;8.494;2023-05-03T07:44:47;101691.53;;;13.45;59.84
16355;BME280;8287;51.644;8.494;2023-05-03T07:47:13;101682.81;;;13.40;58.22
16355;BME280;8287;51.644;8.494;2023-05-03T07:49:40;101671.44;;;13.85;60.20
16355;BME280;8287;51.644;8.494;2023-05-03T07:52:06;101677.00;;;14.15;57.59
16355;BME280;8287;51.644;8.494;2023-05-03T07:54:33;101675.28;;;14.51;58.12
16355;BME280;8287;51.644;8.494;2023-05-03T07:57:00;101674.50;;;14.64;56.47
16355;BME280;8287;51.644;8.494;2023-05-03T07:59:29;101674.38;;;14.69;57.43
16355;BME280;8287;51.644;8.494;2023-05-03T08:01:56;101680.88;;;14.23;55.95
16355;BME280;8287;51.644;8.494;2023-05-03T08:04:22;101670.41;;;14.80;55.68
16355;BME280;8287;51.644;8.494;2023-05-03T08:06:49;101662.53;;;15.11;55.28
16355;BME280;8287;51.644;8.494;2023-05-03T08:09:16;101665.50;;;14.60;53.42
16355;BME280;8287;51.644;8.494;2023-05-03T08:11:43;101669.66;;;14.53;53.87
16355;BME280;8287;51.644;8.494;2023-05-03T08:14:10;101657.97;;;14.49;54.45
16355;BME280;8287;51.644;8.494;2023-05-03T08:16:38;101652.66;;;14.76;54.34
16355;BME280;8287;51.644;8.494;2023-05-03T08:19:04;101657.41;;;14.38;52.64
16355;BME280;8287;51.644;8.494;2023-05-03T08:21:32;101656.13;;;13.45;54.79
16355;BME280;8287;51.644;8.494;2023-05-03T08:23:59;101658.44;;;14.10;54.25
16355;BME280;8287;51.644;8.494;2023-05-03T08:26:26;101659.56;;;13.77;53.86
16355;BME280;8287;51.644;8.494;2023-05-03T08:28:54;101653.34;;;13.82;56.26
16355;BME280;8287;51.644;8.494;2023-05-03T08:31:20;101657.00;;;13.72;55.00
16355;BME280;8287;51.644;8.494;2023-05-03T08:33:48;101662.91;;;13.37;55.20
16355;BME280;8287;51.644;8.494;2023-05-03T08:36:16;101662.41;;;13.67;56.42
16355;BME280;8287;51.644;8.494;2023-05-03T08:38:42;101657.31;;;13.84;56.69
16355;BME280;8287;51.644;8.494;2023-05-03T08:41:16;101661.22;;;14.05;56.28
16355;BME280;8287;51.644;8.494;2023-05-03T08:43:44;101662.53;;;14.48;55.22
16355;BME280;8287;51.644;8.494;2023-05-03T08:46:12;101656.22;;;14.71;53.76
16355;BME280;8287;51.644;8.494;2023-05-03T08:48:38;101659.13;;;14.83;55.97
16355;BME280;8287;51.644;8.494;2023-05-03T08:51:07;101645.03;;;15.05;54.48
16355;BME280;8287;51.644;8.494;2023-05-03T08:53:36;101649.19;;;15.11;53.95
16355;BME280;8287;51.644;8.494;2023-05-03T08:56:10;101638.69;;;15.14;54.96
16355;BME280;8287;51.644;8.494;2023-05-03T08:58:37;101640.03;;;15.25;53.04
16355;BME280;8287;51.644;8.494;2023-05-03T09:01:08;101649.06;;;14.80;54.27
16355;BME280;8287;51.644;8.494;2023-05-03T09:03:35;101635.88;;;15.33;53.10
16355;BME280;8287;51.644;8.494;2023-05-03T09:06:02;101649.22;;;15.55;52.78
16355;BME280;8287;51.644;8.494;2023-05-03T09:08:30;101639.56;;;15.67;51.68
16355;BME280;8287;51.644;8.494;2023-05-03T09:10:56;101638.19;;;15.48;51.95
16355;BME280;8287;51.644;8.494;2023-05-03T09:13:29;101644.06;;;15.58;50.85
16355;BME280;8287;51.644;8.494;2023-05-03T09:15:56;101652.28;;;15.62;48.90
16355;BME280;8287;51.644;8.494;2023-05-03T09:18:23;101639.81;;;15.35;49.80
16355;BME280;8287;51.644;8.494;2023-05-03T09:20:51;101642.09;;;15.28;50.38
16355;BME280;8287;51.644;8.494;2023-05-03T09:23:22;101648.53;;;14.92;48.30
16355;BME280;8287;51.644;8.494;2023-05-03T09:25:56;101646.88;;;15.31;51.66
16355;BME280;8287;51.644;8.494;2023-05-03T09:28:24;101650.06;;;15.64;52.06
16355;BME280;8287;51.644;8.494;2023-05-03T09:31:03;101645.94;;;15.80;50.20
16355;BME280;8287;51.644;8.494;2023-05-03T09:33:30;101643.44;;;15.17;49.96
16355;BME280;8287;51.644;8.494;2023-05-03T09:35:58;101652.84;;;14.79;50.91
16355;BME280;8287;51.644;8.494;2023-05-03T09:38:25;101660.03;;;14.79;50.27
16355;BME280;8287;51.644;8.494;2023-05-03T09:40:52;101647.00;;;14.77;49.65
16355;BME280;8287;51.644;8.494;2023-05-03T09:43:20;101644.09;;;15.01;50.60
16355;BME280;8287;51.644;8.494;2023-05-03T09:45:47;101638.13;;;15.39;50.36
16355;BME280;8287;51.644;8.494;2023-05-03T09:48:14;101645.47;;;15.20;50.03
16355;BME280;8287;51.644;8.494;2023-05-03T09:50:42;101642.84;;;15.64;50.60
16355;BME280;8287;51.644;8.494;2023-05-03T09:53:08;101636.88;;;15.98;47.24
16355;BME280;8287;51.644;8.494;2023-05-03T09:55:36;101642.31;;;15.32;49.71
16355;BME280;8287;51.644;8.494;2023-05-03T09:58:04;101631.28;;;15.77;49.02
16355;BME280;8287;51.644;8.494;2023-05-03T10:00:37;101644.63;;;15.69;47.73
16355;BME280;8287;51.644;8.494;2023-05-03T10:03:06;101640.03;;;15.25;49.12
16355;BME280;8287;51.644;8.494;2023-05-03T10:05:41;101649.44;;;15.01;54.35
16355;BME280;8287;51.644;8.494;2023-05-03T10:08:09;101641.78;;;15.30;51.75
16355;BME280;8287;51.644;8.494;2023-05-03T10:10:40;101624.38;;;15.76;49.97
16355;BME280;8287;51.644;8.494;2023-05-03T10:13:09;101631.88;;;15.44;48.98
16355;BME280;8287;51.644;8.494;2023-05-03T10:15:38;101622.50;;;16.16;49.71
16355;BME280;8287;51.644;8.494;2023-05-03T10:18:08;101605.19;;;16.13;50.12
16355;BME280;8287;51.644;8.494;2023-05-03T10:20:38;101611.59;;;16.43;51.46
16355;BME280;8287;51.644;8.494;2023-05-03T10:23:10;101603.13;;;16.49;49.00
16355;BME280;8287;51.644;8.494;2023-05-03T10:25:39;101605.19;;;16.69;48.75
16355;BME280;8287;51.644;8.494;2023-05-03T10:28:06;101603.16;;;16.91;47.31
16355;BME280;8287;51.644;8.494;2023-05-03T10:30:34;101597.19;;;17.11;48.21
16355;BME280;8287;51.644;8.494;2023-05-03T10:33:36;101602.69;;;16.81;47.00
16355;BME280;8287;51.644;8.494;2023-05-03T10:36:05;101599.19;;;16.55;45.51
16355;BME280;8287;51.644;8.494;2023-05-03T10:38:35;101608.38;;;16.96;46.95
16355;BME280;8287;51.644;8.494;2023-05-03T10:41:02;101593.56;;;17.16;42.42
16355;BME280;8287;51.644;8.494;2023-05-03T10:43:40;101606.78;;;16.87;44.32
16355;BME280;8287;51.644;8.494;2023-05-03T10:46:08;101609.06;;;16.46;45.48
16355;BME280;8287;51.644;8.494;2023-05-03T10:49:20;101598.28;;;16.93;47.86
16355;BME280;8287;51.644;8.494;2023-05-03T10:51:47;101603.94;;;16.92;46.25
16355;BME280;8287;51.644;8.494;2023-05-03T10:54:13;101602.03;;;16.59;47.20
16355;BME280;8287;51.644;8.494;2023-05-03T10:56:49;101596.53;;;16.80;48.40
16355;BME280;8287;51.644;8.494;2023-05-03T10:59:16;101590.56;;;17.09;47.40
16355;BME280;8287;51.644;8.494;2023-05-03T11:01:43;101588.31;;;17.28;46.99
16355;BME280;8287;51.644;8.494;2023-05-03T11:04:12;101579.47;;;17.53;43.57
16355;BME280;8287;51.644;8.494;2023-05-03T11:06:46;101570.38;;;17.03;48.17
16355;BME280;8287;51.644;8.494;2023-05-03T11:09:16;101570.59;;;17.69;46.83
16355;BME280;8287;51.644;8.494;2023-05-03T11:11:42;101569.56;;;18.20;44.73
16355;BME280;8287;51.644;8.494;2023-05-03T11:14:09;101567.78;;;17.57;44.60
16355;BME280;8287;51.644;8.494;2023-05-03T11:16:37;101564.06;;;17.87;45.55
16355;BME280;8287;51.644;8.494;2023-05-03T11:19:12;101557.91;;;17.87;44.64
16355;BME280;8287;51.644;8.494;2023-05-03T11:21:39;101561.31;;;18.33;43.76
16355;BME280;8287;51.644;8.494;2023-05-03T11:24:07;101567.03;;;17.94;42.64
16355;BME280;8287;51.644;8.494;2023-05-03T11:26:34;101560.88;;;18.23;45.67
16355;BME280;8287;51.644;8.494;2023-05-03T11:29:01;101559.19;;;18.68;45.17
16355;BME280;8287;51.644;8.494;2023-05-03T11:31:28;101549.53;;;19.08;43.38
16355;BME280;8287;51.644;8.494;2023-05-03T11:33:54;101548.13;;;19.22;43.36
16355;BME280;8287;51.644;8.494;2023-05-03T11:36:21;101542.81;;;19.46;43.72
16355;BME280;8287;51.644;8.494;2023-05-03T11:38:48;101543.84;;;19.66;42.51
16355;BME280;8287;51.644;8.494;2023-05-03T11:41:19;101537.47;;;19.70;42.62
16355;BME280;8287;51.644;8.494;2023-05-03T11:43:47;101535.31;;;19.52;41.62
16355;BME280;8287;51.644;8.494;2023-05-03T11:46:17;101547.00;;;18.21;41.81
16355;BME280;8287;51.644;8.494;2023-05-03T11:48:45;101538.25;;;18.61;43.05
16355;BME280;8287;51.644;8.494;2023-05-03T11:51:12;101530.75;;;18.87;43.07
16355;BME280;8287;51.644;8.494;2023-05-03T11:53:40;101532.59;;;18.54;43.06
16355;BME280;8287;51.644;8.494;2023-05-03T11:56:08;101519.31;;;19.55;43.08
16355;BME280;8287;51.644;8.494;2023-05-03T11:58:50;101514.84;;;19.95;40.69
16355;BME280;8287;51.644;8.494;2023-05-03T12:01:18;101521.38;;;19.26;41.37
16355;BME280;8287;51.644;8.494;2023-05-03T12:03:45;101519.19;;;19.52;42.63
16355;BME280;8287;51.644;8.494;2023-05-03T12:06:14;101517.66;;;18.98;42.43
16355;BME280;8287;51.644;8.494;2023-05-03T12:08:41;101508.34;;;19.96;40.57
16355;BME280;8287;51.644;8.494;2023-05-03T12:11:07;101506.78;;;20.07;40.59
16355;BME280;8287;51.644;8.494;2023-05-03T12:13:35;101513.84;;;20.51;42.87
16355;BME280;8287;51.644;8.494;2023-05-03T12:16:05;101516.66;;;20.54;40.37
16355;BME280;8287;51.644;8.494;2023-05-03T12:18:46;101516.94;;;20.65;40.12
16355;BME280;8287;51.644;8.494;2023-05-03T12:21:14;101509.34;;;20.94;39.73
16355;BME280;8287;51.644;8.494;2023-05-03T12:23:41;101513.81;;;21.18;39.33
16355;BME280;8287;51.644;8.494;2023-05-03T12:26:08;101504.00;;;21.41;39.63
16355;BME280;8287;51.644;8.494;2023-05-03T12:28:35;101507.19;;;21.15;35.50
16355;BME280;8287;51.644;8.494;2023-05-03T12:31:01;101489.53;;;21.18;38.31
16355;BME280;8287;51.644;8.494;2023-05-03T12:33:29;101502.34;;;21.36;38.16
16355;BME280;8287;51.644;8.494;2023-05-03T12:35:57;101498.75;;;20.35;36.34
16355;BME280;8287;51.644;8.494;2023-05-03T12:38:23;101500.41;;;20.78;37.47
16355;BME280;8287;51.644;8.494;2023-05-03T12:40:50;101493.97;;;21.10;38.84
16355;BME280;8287;51.644;8.494;2023-05-03T12:43:17;101491.13;;;21.65;39.33
16355;BME280;8287;51.644;8.494;2023-05-03T12:45:44;101493.28;;;21.91;38.05
16355;BME280;8287;51.644;8.494;2023-05-03T12:48:11;101492.19;;;21.76;39.55
16355;BME280;8287;51.644;8.494;2023-05-03T12:50:38;101491.28;;;22.22;38.12
16355;BME280;8287;51.644;8.494;2023-05-03T12:53:05;101497.94;;;22.44;35.38
16355;BME280;8287;51.644;8.494;2023-05-03T12:55:32;101485.47;;;22.39;37.13
16355;BME280;8287;51.644;8.494;2023-05-03T12:57:59;101475.00;;;22.53;34.90
16355;BME280;8287;51.644;8.494;2023-05-03T13:00:26;101484.56;;;22.70;35.35
16355;BME280;8287;51.644;8.494;2023-05-03T13:02:52;101488.00;;;22.48;35.76
16355;BME280;8287;51.644;8.494;2023-05-03T13:05:20;101487.22;;;21.16;36.22
16355;BME280;8287;51.644;8.494;2023-05-03T13:07:47;101486.44;;;20.34;36.81